ADDS METAR Data INFO
IDs: Format: Raw Decoded Include TAF

Data at: 2339 UTC 15 Dec 2017

PAOR 152253Z 31003KT 10SM FEW002 FEW020 FEW130 FEW230 M16/M17 A2961 RMK AO2 SLP080 ACSL W T11611172
PAOR 152153Z 09003KT 10SM FEW002 FEW020 FEW180 M13/M14 A2962 RMK AO2 SLP080 T11331144
PAOR 152053Z 00000KT 10SM FEW002 FEW020 M13/M14 A2965 RMK AO2 SLP088 T11281139 50007
PAOR 151953Z 10003KT 10SM BCFG FEW002 FEW009 FEW020 M14/M16 A2966 RMK AO2 SLP092 T11441156
PAOR 151853Z 12004KT 6SM BR SCT002 SCT009 M12/M12 A2965 RMK AO2 SLP086 T11171122
PAOR 151831Z 19003KT 6SM BR BKN002 OVC009 M12/M12 A2965 RMK AO2 T11171122
PAOR 151753Z 00000KT 1SM BR SCT002 BKN009 M11/M12 A2963 RMK AO2 SLP079 4/006 T11111117 11106 21156 52010
PAOR 151736Z 16003KT 1 3/4SM BR SCT005 SCT012 M11/M12 A2963 RMK AO2 T11111117
PAOR 151653Z 16007KT 10SM SCT007 SCT012 M13/M14 A2961 RMK AO2 SLP074 T11281139
PAOR 151553Z 00000KT 10SM FEW007 M13/M15 A2962 RMK AO2 SLP076 T11331150
PAOR 151453Z 00000KT 10SM SCT007 M15/M16 A2960 RMK AO2 SLP073 T11501156 51009
PAOR 151400Z 00000KT 10SM OVC006 M13/M14 A2959 RMK AO2 T11331139
PAOR 151353Z 00000KT 10SM BKN060 M13/M14 A2959 RMK AO2 SLP068 T11331139
PAOR 151253Z 00000KT 10SM BKN060 M14/M15 A2958 RMK AO2 SLP067 T11391150
PAOR 151153Z 00000KT 10SM BKN100 OVC120 M12/M13 A2957 RMK AO2 SLP060 4/006 T11221128 11078 21122 51019
PAOR 151053Z 00000KT 10SM BKN100 OVC120 M10/M11 A2955 RMK AO2 SLP052 T11001111
PAOR 150953Z 00000KT 10SM FEW010 BKN100 OVC120 M09/M09 A2954 RMK AO2 SLP046 T10891094
PAOR 150853Z 08003KT 10SM FEW010 BKN100 OVC120 M08/M08 A2951 RMK AO2 SLP037 T10831083 410781194 53012
PAOR 150753Z 00000KT 10SM FEW012 SCT075 OVC120 M08/M09 A2949 RMK AO2 SLP030 T10831089
PAOR 150748Z 00000KT 10SM FEW012 SCT075 OVC120 M08/M08 A2948 RMK AO2
PAOR 150653Z 00000KT 10SM OVC016 M08/M09 A2947 RMK AO2 SLP025 T10781089
PAOR 150553Z 13003KT 10SM SCT016 OVC029 M08/M09 A2944 RMK AO2 SLP015 4/006 T10831089 11078 21089 53010
PAOR 150453Z 00000KT 10SM FEW014 BKN016 OVC020 M08/M08 A2943 RMK AO2 SLP010 T10781083
PAOR 150353Z 00000KT 9SM FEW014 BKN017 OVC020 M08/M09 A2942 RMK AO2 SNE32 SLP007 T10831089
PAOR 150253Z 15003KT 9SM -SN FEW012 SCT017 OVC020 M09/M09 A2941 RMK AO2 SLP008 PCPN VRY LGT T10891094 53005
PAOR 150153Z 00000KT 7SM -SN FEW012 BKN017 OVC040 M08/M09 A2941 RMK AO2 SLP006 T10831089
PAOR 150138Z 00000KT 9SM -SN FEW012 BKN017 OVC040 M08/M09 A2940 RMK AO2 T10831094
PAOR 150053Z 00000KT 9SM -SN FEW015 BKN030 OVC040 M09/M09 A2939 RMK AO2 SNB41 SLP002 T10891094
PAOR 142353Z 00000KT 10SM FEW015 BKN030 OVC040 M09/M09 A2939 RMK AO2 SNB18E33 SLP004 4/006 T10891094 11089 21117 58004
PAOR 142319Z 00000KT 10SM -SN SCT035 BKN045 OVC055 M09/M10 A2940 RMK AO2 SNB18 T10891100
PAOR 142253Z 12003KT 4SM BR BKN025 OVC035 M09/M10 A2940 RMK AO2 SNE53 SLP010 T10941100
PAOR 142153Z 00000KT 2SM -SN BR BKN010 BKN015 OVC025 M09/M09 A2941 RMK AO2 SLP012 T10891094
PAOR 142137Z 15003KT 2SM -SN BR BKN025 OVC030 M09/M10 A2942 RMK AO2 T10941100
PAOR 142101Z 00000KT 1 3/4SM -SN BR BKN025 OVC030 M10/M11 A2942 RMK AO2 T11001106
PAOR 142053Z 00000KT 2SM -SN BR BKN025 OVC030 M10/M11 A2941 RMK AO2 SLP012 T11001106 58027
PAOR 142041Z 00000KT 1SM -SN BR BKN018 OVC024 M10/M11 A2942 RMK AO2 T11001106
PAOR 142038Z 00000KT 3/4SM -SN BR BKN016 OVC024 M10/M11 A2943 RMK AO2 T11001106
PAOR 142011Z 00000KT 1/4SM SN FZFG VV014 M10/M11 A2943 RMK AO2 T11001111
PAOR 141953Z 00000KT 3/4SM -SN BR OVC021 M10/M11 A2944 RMK AO2 SLP025 T11001111
PAOR 141929Z 00000KT 1SM -SN BR OVC023 M11/M11 A2946 RMK AO2 T11061111
PAOR 141853Z 00000KT 3/4SM -SN BR OVC021 M11/M12 A2947 RMK AO2 SLP033 T11111117
PAOR 141819Z 00000KT 1SM -SN BR VV015 M12/M12 A2948 RMK AO2 T11171122
PAOR 141810Z 00000KT 3/4SM -SN BR VV014 M12/M12 A2948 RMK AO2 T11171122
PAOR 141753Z 00000KT 1 1/4SM -SN BR BKN015 BKN025 OVC030 M12/M13 A2949 RMK AO2 SLP041 4/005 T11171128 11117 21156 58029
PAOR 141744Z 00000KT 1 3/4SM -SN BR BKN020 OVC060 M12/M13 A2950 RMK AO2 T11171128
PAOR 141728Z 00000KT 2SM -SN BR BKN020 OVC060 M12/M13 A2951 RMK AO2 T11171128
PAOR 141720Z 00000KT 1 3/4SM -SN BR BKN020 OVC060 M12/M13 A2951 RMK AO2 T11171128
PAOR 141710Z 33003KT 2 1/2SM -SN BR BKN020 OVC060 M12/M13 A2952 RMK AO2 T11171128
PAOR 141653Z 00000KT 7SM -SN SCT020 BKN060 OVC080 M12/M13 A2953 RMK AO2 SNB38 SLP055 T11171128
PAOR 141553Z 00000KT 10SM SCT090 BKN110 M13/M14 A2955 RMK AO2 SLP066 T11281139
PAOR 141453Z 00000KT 10SM BKN110 M13/M14 A2958 RMK AO2 SLP076 T11331144 58026
PAOR 141353Z 00000KT 10SM OVC110 M14/M15 A2961 RMK AO2 SLP086 T11391150
PAOR 141253Z 00000KT 10SM OVC100 M14/M16 A2965 RMK AO2 SLP097 T11441156
PAOR 141153Z 00000KT 10SM FEW018 FEW100 M16/M17 A2967 RMK AO2 SLP104 4/006 T11561167 11156 21194 58010